createdAt,value
2022-11-03T00:02:51.831Z,97627.00
2022-11-03T00:13:41.223Z,97618.88
2022-11-03T00:19:02.567Z,97620.53
2022-11-03T00:24:23.557Z,97605.16
2022-11-03T00:29:44.672Z,97593.00
2022-11-03T00:35:06.092Z,97586.66
2022-11-03T00:40:26.903Z,97592.28
2022-11-03T00:45:47.541Z,97587.47
2022-11-03T00:51:08.656Z,97584.16
2022-11-03T00:56:30.841Z,97574.91
2022-11-03T01:01:51.680Z,97569.09
2022-11-03T01:07:12.272Z,97566.91
2022-11-03T01:12:32.968Z,97556.91
2022-11-03T01:17:53.757Z,97549.88
2022-11-03T01:23:14.570Z,97544.69
2022-11-03T01:28:36.859Z,97543.56
2022-11-03T01:33:57.818Z,97539.38
2022-11-03T01:39:20.058Z,97530.00
2022-11-03T01:44:46.489Z,97528.88
2022-11-03T01:50:14.488Z,97528.25
2022-11-03T01:55:40.033Z,97519.84
2022-11-03T02:01:02.544Z,97509.38
2022-11-03T02:06:27.438Z,97502.72
2022-11-03T02:12:06.440Z,97490.47
2022-11-03T02:17:30.420Z,97478.72
2022-11-03T02:23:14.968Z,97481.94
2022-11-03T02:28:35.653Z,97461.28
2022-11-03T02:34:19.625Z,97466.34
2022-11-03T02:39:57.079Z,97457.22
2022-11-03T02:45:19.955Z,97449.84
2022-11-03T02:50:40.687Z,97449.00
2022-11-03T02:56:11.437Z,97456.06
2022-11-03T03:01:47.553Z,97444.56
2022-11-03T03:07:15.827Z,97436.19
2022-11-03T03:12:41.740Z,97431.19
2022-11-03T03:18:16.028Z,97430.97
2022-11-03T03:23:48.096Z,97420.91
2022-11-03T03:29:14.907Z,97415.38
2022-11-03T03:34:42.783Z,97412.44
2022-11-03T03:40:09.380Z,97413.41
2022-11-03T03:45:31.782Z,97411.66
2022-11-03T03:50:53.225Z,97416.97
2022-11-03T03:56:14.584Z,97417.31
2022-11-03T04:01:35.661Z,97407.25
2022-11-03T04:07:15.470Z,97392.88
2022-11-03T04:12:54.762Z,97392.50
2022-11-03T04:18:34.605Z,97401.47
2022-11-03T04:23:55.340Z,97409.97
2022-11-03T04:29:15.942Z,97392.78
2022-11-03T04:34:36.694Z,97397.97
2022-11-03T04:40:00.613Z,97395.25
2022-11-03T04:45:32.266Z,97387.78
2022-11-03T04:50:55.988Z,97384.25
2022-11-03T04:56:23.908Z,97379.31
2022-11-03T05:01:46.124Z,97373.97
2022-11-03T05:07:34.586Z,97369.28
2022-11-03T05:12:57.717Z,97366.25
2022-11-03T05:18:25.338Z,97357.97
2022-11-03T05:23:57.976Z,97353.28
2022-11-03T05:29:22.716Z,97350.66
2022-11-03T05:34:48.364Z,97339.91
2022-11-03T05:40:23.954Z,97338.34
2022-11-03T05:45:44.889Z,97339.19
2022-11-03T05:51:21.230Z,97321.78
2022-11-03T05:56:41.890Z,97313.84
2022-11-03T06:02:08.642Z,97314.44
2022-11-03T06:07:31.737Z,97314.59
2022-11-03T06:13:01.700Z,97313.03
2022-11-03T06:18:25.825Z,97313.59
2022-11-03T06:23:46.433Z,97318.75
2022-11-03T06:29:14.311Z,97313.75
2022-11-03T06:34:35.172Z,97311.97
2022-11-03T06:40:24.828Z,97314.84
2022-11-03T06:45:51.788Z,97310.34
2022-11-03T06:51:24.573Z,97324.50
2022-11-03T06:56:45.315Z,97317.56
2022-11-03T07:02:41.855Z,97316.00
2022-11-03T07:08:25.187Z,97298.75
2022-11-03T07:13:57.008Z,97299.53
2022-11-03T07:19:27.959Z,97299.09
2022-11-03T07:24:51.961Z,97301.13
2022-11-03T07:30:20.149Z,97293.78
2022-11-03T07:41:34.288Z,97282.13
2022-11-03T07:46:55.705Z,97260.44
2022-11-03T07:52:21.021Z,97249.66
2022-11-03T07:57:41.891Z,97241.88
2022-11-03T08:03:02.691Z,97234.09
2022-11-03T08:08:23.326Z,97210.38
2022-11-03T08:13:44.370Z,97199.81
2022-11-03T08:19:05.829Z,97191.41
2022-11-03T08:24:26.833Z,97182.59
2022-11-03T08:29:47.625Z,97179.00
2022-11-03T08:35:08.664Z,97173.13
2022-11-03T08:40:29.303Z,97153.53
2022-11-03T08:46:08.120Z,97149.00
2022-11-03T08:51:33.961Z,97154.41
2022-11-03T08:56:54.577Z,97140.34
2022-11-03T09:02:15.200Z,97126.94
2022-11-03T09:13:16.669Z,97101.06
2022-11-03T09:18:37.641Z,97091.31
2022-11-03T09:24:00.122Z,97084.97
2022-11-03T09:29:21.053Z,97083.19
2022-11-03T09:34:42.076Z,97075.06
2022-11-03T09:40:04.288Z,97068.94
2022-11-03T09:45:25.469Z,97052.94
2022-11-03T09:50:51.851Z,97032.84
2022-11-03T09:56:12.575Z,97020.00
2022-11-03T10:01:33.618Z,97021.66
2022-11-03T10:06:58.862Z,97003.72
2022-11-03T10:12:22.580Z,96988.34
2022-11-03T10:17:45.559Z,96981.06
2022-11-03T10:23:08.916Z,96972.41
2022-11-03T10:28:29.811Z,96955.22
2022-11-03T10:33:55.840Z,96944.88
2022-11-03T10:39:33.414Z,96940.88
2022-11-03T10:45:09.322Z,96913.91
2022-11-03T10:50:30.419Z,96905.50
2022-11-03T10:55:51.098Z,96889.81
2022-11-03T11:01:12.245Z,96876.88
2022-11-03T11:06:34.179Z,96858.63
2022-11-03T11:12:23.469Z,96846.88
2022-11-03T11:17:46.860Z,96829.94
2022-11-03T11:23:30.845Z,96829.75
2022-11-03T11:29:10.127Z,96813.97
2022-11-03T11:34:34.100Z,96803.22
2022-11-03T11:39:55.011Z,96793.63
2022-11-03T11:45:15.851Z,96784.56
2022-11-03T11:50:36.699Z,96777.44
2022-11-03T11:56:00.001Z,96761.94
2022-11-03T12:01:24.269Z,96752.78
2022-11-03T12:12:10.627Z,96730.91
2022-11-03T12:17:32.424Z,96723.72
2022-11-03T12:22:53.531Z,96705.22
2022-11-03T12:28:31.377Z,96712.97
2022-11-03T12:33:52.434Z,96697.50
2022-11-03T12:39:13.325Z,96689.00
2022-11-03T12:44:34.321Z,96671.50
2022-11-03T12:49:55.309Z,96672.66
2022-11-03T12:55:16.137Z,96666.75
2022-11-03T13:00:36.709Z,96664.94
2022-11-03T13:05:57.420Z,96669.38
2022-11-03T13:11:36.498Z,96660.19
2022-11-03T13:16:57.257Z,96659.53
2022-11-03T13:22:18.341Z,96634.44
2022-11-03T13:27:39.222Z,96643.78
2022-11-03T13:33:00.085Z,96630.66
2022-11-03T13:38:21.417Z,96627.69
2022-11-03T13:43:42.564Z,96624.75
2022-11-03T14:00:24.975Z,96618.72
2022-11-03T14:05:45.690Z,96610.38
2022-11-03T14:11:24.954Z,96611.19
2022-11-03T14:16:46.150Z,96609.91
2022-11-03T14:22:06.853Z,96605.00
2022-11-03T14:27:27.929Z,96597.09
2022-11-03T14:32:48.737Z,96588.28
2022-11-03T14:38:09.593Z,96592.00
2022-11-03T14:43:35.018Z,96578.09
2022-11-03T14:48:56.147Z,96571.38
2022-11-03T14:54:17.224Z,96575.13
2022-11-03T14:59:38.120Z,96565.97
2022-11-03T15:04:59.320Z,96555.78
2022-11-03T15:10:20.027Z,96548.53
2022-11-03T15:15:41.714Z,96538.38
2022-11-03T15:21:02.979Z,96525.25
2022-11-03T15:26:23.921Z,96511.66
2022-11-03T15:31:47.871Z,96504.44
2022-11-03T15:37:09.152Z,96493.78
2022-11-03T15:42:30.160Z,96482.97
2022-11-03T15:47:54.592Z,96486.69
2022-11-03T15:53:18.076Z,96479.00
2022-11-03T15:58:38.918Z,96459.19
2022-11-03T16:04:00.048Z,96457.06
2022-11-03T16:09:21.880Z,96445.63
2022-11-03T16:14:43.789Z,96429.78
2022-11-03T16:20:05.273Z,96428.56
2022-11-03T16:25:26.087Z,96414.97
2022-11-03T16:30:51.256Z,96406.91
2022-11-03T16:36:15.050Z,96411.09
2022-11-03T16:41:35.853Z,96413.97
2022-11-03T16:46:56.541Z,96397.81
2022-11-03T16:52:17.191Z,96397.28
2022-11-03T16:57:41.273Z,96387.31
2022-11-03T17:03:02.328Z,96388.28
2022-11-03T17:08:51.179Z,96382.16
2022-11-03T17:14:13.461Z,96362.72
2022-11-03T17:19:34.433Z,96367.44
2022-11-03T17:24:55.275Z,96364.00
2022-11-03T17:30:20.954Z,96360.44
2022-11-03T17:35:43.398Z,96346.56
2022-11-03T17:41:04.171Z,96341.97
2022-11-03T17:46:25.045Z,96339.72
2022-11-03T17:51:45.674Z,96325.41
2022-11-03T17:57:06.576Z,96306.28
2022-11-03T18:02:30.610Z,96291.22
2022-11-03T18:07:52.578Z,96275.06
2022-11-03T18:13:24.540Z,96254.94
2022-11-03T18:18:45.920Z,96251.41
2022-11-03T18:24:16.095Z,96253.50
2022-11-03T18:29:37.017Z,96244.63
2022-11-03T18:34:57.969Z,96231.75
2022-11-03T18:40:20.561Z,96236.31
2022-11-03T18:45:41.721Z,96233.91
2022-11-03T18:51:02.690Z,96213.22
2022-11-03T18:56:23.414Z,96206.72
2022-11-03T19:01:44.697Z,96183.88
2022-11-03T19:07:08.341Z,96180.09
2022-11-03T19:12:29.369Z,96177.44
2022-11-03T19:17:54.544Z,96169.47
2022-11-03T19:23:15.919Z,96147.31
2022-11-03T19:28:36.996Z,96132.13
2022-11-03T19:33:58.231Z,96124.47
2022-11-03T19:39:32.088Z,96119.56
2022-11-03T19:44:53.060Z,96116.63
2022-11-03T19:50:23.953Z,96097.53
2022-11-03T19:55:45.068Z,96071.81
2022-11-03T20:01:08.828Z,96087.09
2022-11-03T20:06:30.827Z,96086.91
2022-11-03T20:11:53.240Z,96062.97
2022-11-03T20:17:17.255Z,96076.19
2022-11-03T20:22:40.736Z,96070.13
2022-11-03T20:28:12.647Z,96068.97
2022-11-03T20:33:34.883Z,96070.91
2022-11-03T20:38:59.344Z,96060.31
2022-11-03T20:44:20.009Z,96047.28
2022-11-03T20:49:40.881Z,96057.69
2022-11-03T20:55:02.171Z,96056.72
2022-11-03T21:00:27.137Z,96044.47
2022-11-03T21:05:48.548Z,96042.72
2022-11-03T21:11:23.637Z,96038.66
2022-11-03T21:17:03.049Z,96040.44
2022-11-03T21:28:10.970Z,96018.00
2022-11-03T21:33:35.821Z,96006.25
2022-11-03T21:38:56.530Z,96006.41
2022-11-03T21:44:17.425Z,95999.59
2022-11-03T21:49:43.905Z,95996.50
2022-11-03T21:55:05.445Z,96002.56
2022-11-03T22:00:26.021Z,95977.78
2022-11-03T22:05:46.967Z,95982.53
2022-11-03T22:11:24.048Z,95973.72
2022-11-03T22:16:46.087Z,95972.72
2022-11-03T22:22:33.401Z,95972.38
2022-11-03T22:27:54.172Z,95971.69
2022-11-03T22:33:14.941Z,95953.91
2022-11-03T22:38:56.281Z,95955.84
2022-11-03T22:44:35.597Z,95953.09
2022-11-03T22:49:56.382Z,95946.75
2022-11-03T22:55:17.009Z,95940.75
2022-11-03T23:00:37.632Z,95938.94
2022-11-03T23:06:02.906Z,95937.00
2022-11-03T23:11:26.710Z,95921.84
2022-11-03T23:16:47.608Z,95916.94
2022-11-03T23:22:08.535Z,95914.00
2022-11-03T23:27:29.429Z,95915.31
2022-11-03T23:32:50.083Z,95907.16
2022-11-03T23:38:10.996Z,95893.59
2022-11-03T23:43:32.484Z,95882.53
2022-11-03T23:48:53.622Z,95870.31
2022-11-03T23:54:14.812Z,95874.81
2022-11-03T23:59:35.801Z,95865.84
